Latest Weather Observations for Cooma Airport

IDN60901

Issued at 12:12 pm EST Wednesday 21 April 2021 (issued every 10 minutes, with the page automatically refreshed every 10 minutes)

About weather observations | Map of Canberra area stations | Latest observations for Canberra area | Other Formats
Station Details ID: 070217 Name: COOMA AIRPORT AWS Lat: -36.29 Lon: 148.97 Height: 930.0 m
Data from the previous 72 hours. | See also: Recent months at Cooma Airport
Date/Time
EST
Temp
°C
App
Temp
°C
Dew
Point
°C
Rel
Hum
%
Delta-T
°C
Wind Press
QNH
hPa
Press
MSL
hPa
Rain since
9am
mm
Dir  Spd
km/h
Gust
km/h
Spd
kts
Gust
kts
21/12:00pm 8.0 3.2 2.5 68 2.4 SSW 17 24 9 13 1015.6 1014.3 0.0
21/11:30am 7.1 2.7 2.6 73 2.0 SW 15 20 8 11 1015.7 1014.4 0.0
21/11:00am 6.8 1.7 3.2 78 1.6 SW 19 28 10 15 1015.9 1014.6 0.0
21/10:59am 6.6 1.5 3.0 78 1.6 SW 19 28 10 15 1015.9 1014.6 0.0
21/10:30am 6.1 0.4 2.9 80 1.4 SW 22 33 12 18 1015.9 1014.6 0.0
21/10:00am 5.7 0.5 3.4 85 1.0 SW 20 28 11 15 1015.7 1014.4 0.0
21/09:48am 5.1 -0.1 2.3 82 1.2 SW 19 32 10 17 1015.7 1014.4 0.0
21/09:30am 5.3 -1.3 2.3 81 1.3 SW 26 35 14 19 1015.5 1014.1 0.0
21/09:00am 4.8 -2.7 1.5 79 1.4 SW 30 37 16 20 1014.8 1013.5 4.4
21/08:30am 4.4 -1.9 1.6 82 1.2 SW 24 33 13 18 1014.7 1013.4 4.4
21/08:00am 4.0 -2.8 0.9 80 1.3 SW 26 32 14 17 1014.2 1012.9 4.4
21/07:30am 3.6 -3.2 0.5 80 1.3 SW 26 33 14 18 1014.0 1012.7 4.4
21/07:00am 2.2 -4.3 0.3 87 0.8 SW 24 30 13 16 1013.7 1012.4 4.4
21/06:30am 1.1 -4.2 -0.4 90 0.6 SW 17 22 9 12 1013.4 1012.0 4.4
21/06:00am 1.4 -4.4 0.1 91 0.5 SW 20 26 11 14 1013.2 1011.8 4.4
21/05:30am 1.2 -5.0 0.0 92 0.5 SW 22 26 12 14 1012.9 1011.6 4.4
21/05:00am 2.2 -3.3 0.6 89 0.6 SW 19 20 10 11 1012.9 1011.6 4.4
21/04:30am 2.9 -3.5 0.8 86 0.8 SW 24 32 13 17 1012.7 1011.3 4.4
21/04:00am 3.3 -2.7 1.3 87 0.8 SW 22 30 12 16 1012.2 1010.8 4.4
21/03:30am 3.3 -1.6 1.7 89 0.7 SSW 17 22 9 12 1011.7 1010.3 4.4
21/03:00am 3.2 -1.7 2.0 92 0.5 SW 17 20 9 11 1011.6 1010.2 4.4
21/02:30am 3.0 -1.1 2.4 96 0.3 SW 13 19 7 10 1011.7 1010.3 4.4
21/02:00am 3.2 -1.2 2.9 98 0.1 WSW 15 19 8 10 1011.5 1010.1 4.4
21/01:48am 3.4 -1.9 3.1 98 0.1 SW 20 26 11 14 1011.5 1010.1 4.4
21/01:30am 3.7 -1.9 3.6 99 0.0 SW 22 32 12 17 1011.4 1010.0 4.4
21/01:00am 4.1 -1.8 4.0 99 0.0 SW 24 32 13 17 1011.3 1009.9 4.4
21/12:43am 4.3 -1.2 4.2 99 0.0 SW 22 33 12 18 1011.2 1009.8 4.4
21/12:30am 4.4 -0.7 4.3 99 0.0 SW 20 28 11 15 1011.2 1009.8 4.4
21/12:00am 4.6 0.2 4.5 99 0.0 SSW 17 20 9 11 1011.3 1009.9 4.4
 
Date/Time
EST
Temp
°C
App
Temp
°C
Dew
Point
°C
Rel
Hum
%
Delta-T
°C
Wind Press
QNH
hPa
Press
MSL
hPa
Rain since
9am
mm
Dir  Spd
km/h
Gust
km/h
Spd
kts
Gust
kts
20/11:47pm 4.6 -0.2 4.5 99 0.0 SSW 19 24 10 13 1011.2 1009.8 4.4
20/11:30pm 4.6 -0.4 4.5 99 0.0 SSW 20 30 11 16 1011.3 1009.9 4.2
20/11:25pm 4.8 -0.2 4.7 99 0.0 SSW 20 30 11 16 1011.3 1009.9 4.0
20/11:11pm 4.8 1.1 4.7 99 0.0 SSW 13 19 7 10 1011.4 1010.0 3.8
20/11:00pm 4.7 1.8 4.6 99 0.0 SSW 9 11 5 6 1011.2 1009.8 3.6
20/10:30pm 4.8 1.1 4.7 99 0.0 SSW 13 19 7 10 1011.3 1009.9 3.4
20/10:12pm 5.0 0.6 4.9 99 0.0 S 17 20 9 11 1011.4 1010.0 2.6
20/10:01pm 5.3 0.4 5.0 98 0.1 SSW 20 28 11 15 1011.3 1009.9 2.2
20/10:00pm 5.3 0.0 5.0 98 0.1 SSW 22 32 12 17 1011.2 1009.8 2.0
20/09:41pm 6.3 -0.2 4.9 91 0.6 SW 28 52 15 28 1011.0 1009.6 1.2
20/09:30pm 7.3 2.0 5.0 85 1.1 W 22 33 12 18 1010.7 1009.3 1.2
20/09:00pm 8.4 5.2 5.3 81 1.5 WNW 11 20 6 11 1010.4 1009.0 0.2
20/08:30pm 7.5 6.2 4.3 80 1.5 CALM 0 4 0 2 1009.7 1008.2 0.2
20/08:00pm 7.5 5.1 4.3 80 1.5 NW 6 7 3 4 1010.3 1008.9 0.2
20/07:30pm 8.9 4.4 4.3 73 2.1 WNW 17 32 9 17 1009.9 1008.4 0.2
20/07:14pm 10.7 5.5 3.3 60 3.4 WNW 20 37 11 20 1010.7 1009.3 0.0
20/07:00pm 11.3 7.6 2.3 54 4.1 WNW 11 13 6 7 1010.3 1008.9 0.0
20/06:30pm 11.2 8.4 2.2 54 4.1 NNW 6 11 3 6 1009.9 1008.4 0.0
20/06:00pm 11.1 7.3 1.9 53 4.1 NNW 11 15 6 8 1009.5 1008.1 0.0
20/05:30pm 12.0 8.6 1.9 50 4.6 NW 9 13 5 7 1009.8 1008.3 0.0
20/05:00pm 12.3 8.6 2.2 50 4.6 WNW 11 17 6 9 1009.9 1008.4 0.0
20/04:30pm 13.0 7.1 1.4 45 5.2 WNW 22 35 12 19 1010.0 1008.6 0.0
20/04:00pm 13.5 7.2 1.8 45 5.4 WNW 24 37 13 20 1010.1 1008.7 0.0
20/03:30pm 14.2 8.2 1.2 41 5.9 WNW 22 35 12 19 1010.3 1008.9 0.0
20/03:00pm 14.8 8.1 1.3 40 6.2 WNW 26 41 14 22 1010.7 1009.3 0.0
20/02:30pm 14.3 8.0 1.6 42 5.8 W 24 35 13 19 1010.6 1009.2 0.0
20/02:15pm 14.1 6.8 0.0 38 6.2 WNW 28 48 15 26 1010.5 1009.1 0.0
20/02:00pm 14.1 8.0 0.4 39 6.1 W 22 39 12 21 1010.9 1009.4 0.0
20/01:30pm 13.4 7.3 0.4 41 5.8 W 22 39 12 21 1011.3 1009.9 0.0
20/01:00pm 13.2 5.7 1.2 44 5.4 W 30 46 16 25 1011.6 1010.2 0.0
20/12:36pm 14.7 7.7 1.9 42 5.9 WNW 28 46 15 25 1012.0 1010.6 0.0
20/12:30pm 14.2 7.1 1.5 42 5.8 WNW 28 44 15 24 1012.3 1010.9 0.0
20/12:06pm 13.8 6.2 0.8 41 5.8 WNW 30 50 16 27 1012.9 1011.6 0.0
20/12:00pm 13.3 6.1 1.0 43 5.5 WNW 28 43 15 23 1013.0 1011.7 0.0
20/11:30am 14.8 7.7 1.3 40 6.2 WNW 28 48 15 26 1013.3 1011.9 0.0
20/11:05am 15.1 7.4 2.3 42 6.0 W 32 50 17 27 1013.4 1012.0 0.0
20/11:00am 14.3 5.9 1.6 42 5.8 W 35 50 19 27 1013.5 1012.1 0.0
20/10:40am 13.6 5.2 1.3 43 5.6 W 35 56 19 30 1013.4 1012.0 0.0
20/10:30am 13.5 5.1 1.8 45 5.4 WNW 35 50 19 27 1013.5 1012.1 0.0
20/10:00am 13.4 5.6 1.7 45 5.3 W 32 52 17 28 1013.6 1012.2 0.0
20/09:30am 12.9 5.7 3.0 51 4.6 W 30 48 16 26 1013.8 1012.5 0.0
20/09:24am 12.2 5.9 1.5 48 4.8 W 24 48 13 26 1013.9 1012.6 0.0
20/09:00am 11.6 7.6 2.6 54 4.1 WSW 13 32 7 17 1014.4 1013.0 0.0
20/08:30am 10.8 5.9 1.9 54 4.0 WNW 17 24 9 13 1014.2 1012.9 0.0
20/08:00am 10.4 4.9 2.0 56 3.8 WNW 20 32 11 17 1014.1 1012.8 0.0
20/07:30am 9.6 6.6 2.0 59 3.4 NW 7 15 4 8 1014.1 1012.8 0.0
20/07:00am 6.9 3.5 2.0 71 2.1 NW 9 13 5 7 1014.0 1012.7 0.0
20/06:30am 4.2 1.1 1.6 83 1.1 NW 7 11 4 6 1013.9 1012.6 0.0
20/06:00am 3.3 0.1 3.2 99 0.0 NW 9 19 5 10 1014.0 1012.7 0.0
20/05:30am -1.6 -5.3 -2.9 91 0.4 NNE 7 9 4 5 1013.9 1012.6 0.0
20/05:00am -0.6 -3.5 -1.4 94 0.3 NE 4 7 2 4 1014.0 1012.7 0.0
20/04:30am 0.8 -2.5 0.4 97 0.2 N 7 7 4 4 1013.9 1012.6 0.0
20/04:00am 0.5 -2.9 -0.4 94 0.3 NNE 7 11 4 6 1013.7 1012.4 0.0
20/03:30am 1.1 -2.0 0.2 94 0.4 SE 6 7 3 4 1013.8 1012.5 0.0
20/03:00am -0.6 -4.5 -1.3 95 0.2 NW 9 13 5 7 1014.1 1012.8 0.0
20/02:30am 0.4 -2.9 0.1 98 0.1 NNE 7 9 4 5 1014.7 1013.4 0.0
20/02:00am 0.5 -2.6 -0.1 96 0.2 NE 6 7 3 4 1014.9 1013.6 0.0
20/01:30am -0.1 -3.4 -1.1 93 0.4 NE 6 7 3 4 1015.3 1014.0 0.0
20/01:00am 0.1 -3.2 -0.9 93 0.4 N 6 7 3 4 1015.5 1014.1 0.0
20/12:30am 0.3 -2.6 -0.8 92 0.4 NE 4 7 2 4 1015.6 1014.3 0.0
20/12:00am 0.8 -2.5 -0.2 93 0.4 NNE 7 7 4 4 1015.7 1014.4 0.0
 
Date/Time
EST
Temp
°C
App
Temp
°C
Dew
Point
°C
Rel
Hum
%
Delta-T
°C
Wind Press
QNH
hPa
Press
MSL
hPa
Rain since
9am
mm
Dir  Spd
km/h
Gust
km/h
Spd
kts
Gust
kts
19/11:30pm -0.1 -2.7 -2.0 87 0.7 NNE 2 7 1 4 1015.8 1014.5 0.0
19/11:00pm 0.8 -1.4 -1.6 84 0.9 CALM 0 0 0 0 1016.0 1014.7 0.0
19/10:30pm 2.3 0.2 -1.0 79 1.3 CALM 0 0 0 0 1016.3 1015.0 0.0
19/10:00pm 3.3 1.4 0.5 82 1.1 CALM 0 0 0 0 1016.2 1014.9 0.0
19/09:30pm 4.5 2.0 1.5 81 1.3 SSE 4 7 2 4 1016.3 1015.0 0.0
19/09:00pm 7.2 5.1 4.0 80 1.5 E 4 7 2 4 1016.2 1014.9 0.0
19/08:30pm 6.5 4.8 1.8 72 2.0 CALM 0 0 0 0 1016.1 1014.8 0.0
19/08:00pm 8.5 5.8 3.6 71 2.2 WSW 7 11 4 6 1016.2 1014.9 0.0
19/07:30pm 9.6 5.3 3.4 65 2.8 NNW 15 20 8 11 1016.1 1014.8 0.0
19/07:00pm 10.5 5.9 3.8 63 3.1 NW 17 28 9 15 1016.0 1014.7 0.0
19/06:30pm 11.2 8.1 3.7 60 3.5 NE 9 17 5 9 1015.9 1014.6 0.0
19/06:00pm 12.2 7.5 2.9 53 4.3 NW 17 28 9 15 1015.6 1014.3 0.0
19/05:30pm 12.9 8.0 2.2 48 4.9 NW 17 24 9 13 1015.2 1013.9 0.0
19/05:00pm 14.5 9.5 1.1 40 6.1 WNW 17 24 9 13 1015.0 1013.7 0.0
19/04:30pm 17.2 12.1 0.8 33 7.6 WNW 17 24 9 13 1014.6 1013.2 0.0
19/04:00pm 18.2 12.1 0.4 30 8.2 NW 22 37 12 20 1014.4 1013.0 0.0
19/03:30pm 19.8 15.5 3.1 33 8.2 WSW 15 22 8 12 1014.0 1012.7 0.0
19/03:00pm 20.0 15.0 3.7 34 8.1 WNW 19 32 10 17 1013.8 1012.5 0.0
19/02:30pm 19.8 14.6 2.6 32 8.4 NE 19 26 10 14 1014.0 1012.7 0.0
19/02:00pm 19.7 14.8 4.2 36 7.8 ENE 19 26 10 14 1014.2 1012.9 0.0
19/01:30pm 18.5 13.9 5.4 42 6.7 ENE 19 24 10 13 1014.6 1013.2 0.0
19/01:00pm 17.8 13.5 5.1 43 6.4 ENE 17 24 9 13 1015.0 1013.7 0.0
19/12:30pm 17.4 13.6 5.7 46 6.0 NE 15 22 8 12 1015.3 1014.0 0.0
19/12:00pm 16.4 12.8 4.8 46 5.8 ENE 13 19 7 10 1016.1 1014.8 0.0
19/11:30am 15.3 11.7 5.2 51 5.0 ENE 13 17 7 9 1016.8 1015.5 0.0
19/11:00am 14.5 10.3 5.8 56 4.4 ENE 17 22 9 12 1017.1 1015.8 0.0
19/10:30am 13.1 9.0 4.5 56 4.2 NE 15 19 8 10 1017.4 1016.1 0.0
19/10:00am 11.5 7.1 4.7 63 3.3 NE 17 20 9 11 1017.8 1016.5 0.0
19/09:30am 9.5 5.7 5.9 78 1.7 NE 15 20 8 11 1018.1 1016.8 0.0
19/09:00am 7.4 2.7 5.0 85 1.1 NE 19 22 10 12 1018.4 1017.2 0.0
19/08:30am 5.7 1.1 3.7 87 0.9 NE 17 22 9 12 1018.5 1017.3 0.0
19/08:00am 4.1 -0.6 3.4 95 0.3 NE 17 19 9 10 1018.5 1017.3 0.0
19/07:30am 2.3 -2.2 2.2 99 0.0 NE 15 17 8 9 1018.5 1017.3 0.0
19/07:00am -0.3 -4.8 -0.4 99 0.0 NE 13 17 7 9 1018.4 1017.2 0.0
19/06:30am -1.1 -5.3 -1.2 99 0.0 NE 11 13 6 7 1018.4 1017.2 0.0
19/06:00am -1.1 -5.3 -1.2 99 0.0 NNE 11 13 6 7 1018.4 1017.2 0.0
19/05:51am -1.6 -6.3 -1.7 99 0.0 NNE 13 13 7 7 1018.4 1017.2 0.0
19/05:45am -1.3 -5.6 -1.4 99 0.0 NE 11 13 6 7 1018.5 1017.3 0.0
19/05:30am -1.2 -5.1 -1.3 99 0.0 NNE 9 11 5 6 1018.4 1017.2 0.0
19/05:00am -1.6 -5.5 -1.7 99 0.0 NNE 9 9 5 5 1018.3 1017.0 0.0
19/04:56am -1.3 -5.2 -1.4 99 0.0 NNE 9 9 5 5 1018.4 1017.2 0.0
19/04:50am -1.4 -4.4 -1.8 97 0.1 N 4 9 2 5 1018.4 1017.2 0.0
19/04:30am -1.8 -4.1 -2.4 96 0.1 CALM 0 0 0 0 1018.5 1017.3 0.0
19/04:00am -1.5 -3.8 -2.1 96 0.1 CALM 0 0 0 0 1018.5 1017.3 0.0
19/03:30am -0.5 -2.6 -0.9 97 0.1 CALM 0 0 0 0 1018.5 1017.3 0.0
19/03:00am -0.3 -2.4 -1.0 95 0.2 CALM 0 0 0 0 1018.8 1017.6 0.0
19/02:30am 0.1 -2.0 -0.9 93 0.4 CALM 0 0 0 0 1019.2 1017.9 0.0
19/02:00am 1.9 -0.6 1.5 97 0.2 WSW 4 6 2 3 1019.5 1018.3 0.0
19/01:30am 2.8 -0.1 2.7 99 0.0 SW 7 9 4 5 1019.6 1018.4 0.0
19/01:00am 2.2 0.5 2.1 99 0.0 CALM 0 0 0 0 1019.9 1018.7 0.0
19/12:30am 0.9 -2.2 0.2 95 0.3 WSW 6 7 3 4 1019.9 1018.7 0.0
19/12:00am 3.3 1.8 3.2 99 0.0 CALM 0 0 0 0 1020.2 1018.9 0.0
 
Date/Time
EST
Temp
°C
App
Temp
°C
Dew
Point
°C
Rel
Hum
%
Delta-T
°C
Wind Press
QNH
hPa
Press
MSL
hPa
Rain since
9am
mm
Dir  Spd
km/h
Gust
km/h
Spd
kts
Gust
kts
18/11:43pm 1.8 0.0 1.5 98 0.1 CALM 0 0 0 0 1020.2 1018.9 0.0
18/11:30pm 1.0 -0.9 0.6 97 0.2 CALM 0 0 0 0 1020.2 1018.9 0.0
18/11:24pm 1.0 -0.9 0.4 96 0.2 CALM 0 0 0 0 1020.2 1018.9 0.0
18/11:23pm 1.0 -0.9 0.4 96 0.2 CALM 0 0 0 0 1020.2 1018.9 0.0
18/11:04pm 0.6 -1.5 -0.7 91 0.5 CALM 0 0 0 0 1020.3 1019.1 0.0
18/11:00pm 1.5 -0.4 0.5 93 0.4 CALM 0 0 0 0 1020.3 1019.1 0.0
18/10:50pm 1.7 -0.2 0.7 93 0.4 CALM 0 0 0 0 1020.4 1019.2 0.0
18/10:34pm 1.1 -0.9 0.1 93 0.4 CALM 0 0 0 0 1020.5 1019.3 0.0
18/10:30pm 1.5 -0.4 0.5 93 0.4 CALM 0 0 0 0 1020.5 1019.3 0.0
18/10:00pm 1.0 -1.1 -0.5 90 0.6 CALM 0 0 0 0 1020.6 1019.4 0.0
18/09:30pm 2.2 0.3 0.6 89 0.6 CALM 0 0 0 0 1020.6 1019.4 0.0
18/09:00pm 2.0 0.0 -0.2 85 0.9 CALM 0 0 0 0 1020.6 1019.4 0.0
18/08:30pm 3.6 1.8 1.3 85 0.9 CALM 0 0 0 0 1020.5 1019.3 0.0
18/08:00pm 4.5 1.1 1.7 82 1.2 NE 9 13 5 7 1020.5 1019.3 0.0
18/07:30pm 4.7 2.8 0.7 75 1.6 CALM 0 0 0 0 1020.3 1019.1 0.0
18/07:00pm 5.9 4.0 0.5 68 2.2 CALM 0 0 0 0 1020.0 1018.8 0.0
18/06:30pm 7.2 5.4 0.9 64 2.7 CALM 0 0 0 0 1019.8 1018.6 0.0
18/06:00pm 9.5 7.4 1.9 59 3.4 SSE 2 6 1 3 1019.5 1018.3 0.0
18/05:30pm 11.6 8.6 1.8 51 4.4 SSE 7 9 4 5 1019.3 1018.0 0.0
18/05:00pm 13.9 10.5 1.9 44 5.5 SSE 9 15 5 8 1019.1 1017.8 0.0
18/04:30pm 14.9 10.3 1.4 40 6.2 SSE 15 20 8 11 1019.1 1017.8 0.0
18/04:00pm 15.5 11.0 -0.3 34 7.0 S 13 19 7 10 1019.1 1017.8 0.0
18/03:30pm 16.0 12.2 -0.7 32 7.4 S 9 17 5 9 1019.0 1017.7 0.0
18/03:00pm 16.2 11.7 -0.5 32 7.4 S 13 19 7 10 1019.1 1017.8 0.0
18/02:30pm 15.9 11.1 0.1 34 7.1 S 15 22 8 12 1019.3 1018.0 0.0
18/02:00pm 16.1 12.1 0.3 34 7.1 SSE 11 17 6 9 1019.3 1018.0 0.0
18/01:30pm 16.3 13.8 4.0 44 6.0 NE 6 11 3 6 1019.5 1018.3 0.0
18/01:00pm 15.4 12.9 3.9 46 5.6 NE 6 7 3 4 1019.9 1018.7 0.0
18/12:30pm 14.7 12.4 5.8 55 4.5 ENE 7 17 4 9 1020.4 1019.2 0.0

Latest Capital City Observations: Canberra | Sydney | Melbourne | Brisbane | Adelaide | Perth | Hobart | Darwin

Other formats

Comma delimited format used in spreadsheet applications
http://www.bom.gov.au/fwo/IDN60903/IDN60903.94921.axf

JavaScript Object Notation format (JSON) in row-major order
http://www.bom.gov.au/fwo/IDN60903/IDN60903.94921.json

Data quality

Most of these data are generated automatically and are frequently updated. Quality checks on data are not normally performed. It is possible for incorrect values to appear. Refer to information at About Latest Weather Observations and please check the disclaimer before using these data.